sensor_id;sensor_type;location;lat;lon;timestamp;pressure;altitude;pressure_sealevel;temperature;humidity
21728;BME280;11026;50.560;17.852;2023-05-07T00:01:24;99840.47;;;10.07;100.00
21728;BME280;11026;50.560;17.852;2023-05-07T00:03:51;99839.50;;;9.85;100.00
21728;BME280;11026;50.560;17.852;2023-05-07T00:06:19;99835.63;;;9.95;100.00
21728;BME280;11026;50.560;17.852;2023-05-07T00:08:46;99844.47;;;9.94;100.00
21728;BME280;11026;50.560;17.852;2023-05-07T00:11:14;99841.69;;;9.97;100.00
21728;BME280;11026;50.560;17.852;2023-05-07T00:13:41;99836.66;;;9.91;100.00
21728;BME280;11026;50.560;17.852;2023-05-07T00:16:08;99833.09;;;9.92;100.00
21728;BME280;11026;50.560;17.852;2023-05-07T00:18:36;99839.31;;;9.91;100.00
21728;BME280;11026;50.560;17.852;2023-05-07T00:21:09;99834.13;;;9.88;100.00
21728;BME280;11026;50.560;17.852;2023-05-07T00:23:37;99842.03;;;9.88;100.00
21728;BME280;11026;50.560;17.852;2023-05-07T00:26:05;99832.50;;;9.84;100.00
21728;BME280;11026;50.560;17.852;2023-05-07T00:28:33;99835.41;;;9.76;100.00
21728;BME280;11026;50.560;17.852;2023-05-07T00:31:01;99831.91;;;9.76;100.00
21728;BME280;11026;50.560;17.852;2023-05-07T00:33:30;99840.94;;;9.70;100.00
21728;BME280;11026;50.560;17.852;2023-05-07T00:35:58;99838.22;;;9.72;100.00
21728;BME280;11026;50.560;17.852;2023-05-07T00:38:25;99834.78;;;9.70;100.00
21728;BME280;11026;50.560;17.852;2023-05-07T00:40:53;99836.53;;;9.71;100.00
21728;BME280;11026;50.560;17.852;2023-05-07T00:43:20;99833.81;;;9.72;100.00
21728;BME280;11026;50.560;17.852;2023-05-07T00:45:50;99841.25;;;9.61;100.00
21728;BME280;11026;50.560;17.852;2023-05-07T00:48:18;99845.66;;;9.60;100.00
21728;BME280;11026;50.560;17.852;2023-05-07T00:50:47;99844.97;;;9.55;100.00
21728;BME280;11026;50.560;17.852;2023-05-07T00:53:16;99845.00;;;9.54;100.00
21728;BME280;11026;50.560;17.852;2023-05-07T00:55:43;99845.34;;;9.45;100.00
21728;BME280;11026;50.560;17.852;2023-05-07T00:58:11;99852.34;;;9.46;100.00
21728;BME280;11026;50.560;17.852;2023-05-07T01:00:38;99852.59;;;9.38;100.00
21728;BME280;11026;50.560;17.852;2023-05-07T01:03:05;99855.31;;;9.36;100.00
21728;BME280;11026;50.560;17.852;2023-05-07T01:05:35;99851.13;;;9.29;100.00
21728;BME280;11026;50.560;17.852;2023-05-07T01:08:04;99854.59;;;9.31;100.00
21728;BME280;11026;50.560;17.852;2023-05-07T01:10:32;99855.66;;;9.26;100.00
21728;BME280;11026;50.560;17.852;2023-05-07T01:13:01;99854.75;;;9.27;100.00
21728;BME280;11026;50.560;17.852;2023-05-07T01:15:29;99854.84;;;9.24;100.00
21728;BME280;11026;50.560;17.852;2023-05-07T01:17:56;99855.38;;;9.35;100.00
21728;BME280;11026;50.560;17.852;2023-05-07T01:20:24;99864.31;;;9.31;100.00
21728;BME280;11026;50.560;17.852;2023-05-07T01:22:53;99864.41;;;9.28;100.00
21728;BME280;11026;50.560;17.852;2023-05-07T01:25:21;99867.72;;;9.34;100.00
21728;BME280;11026;50.560;17.852;2023-05-07T01:27:55;99866.13;;;9.29;100.00
21728;BME280;11026;50.560;17.852;2023-05-07T01:30:23;99867.22;;;9.22;100.00
21728;BME280;11026;50.560;17.852;2023-05-07T01:32:59;99867.28;;;9.20;100.00
21728;BME280;11026;50.560;17.852;2023-05-07T01:35:34;99861.78;;;9.26;100.00
21728;BME280;11026;50.560;17.852;2023-05-07T01:38:04;99866.13;;;9.29;100.00
21728;BME280;11026;50.560;17.852;2023-05-07T01:40:33;99863.09;;;9.15;100.00
21728;BME280;11026;50.560;17.852;2023-05-07T01:43:05;99869.31;;;9.12;100.00
21728;BME280;11026;50.560;17.852;2023-05-07T01:45:34;99868.41;;;9.13;100.00
21728;BME280;11026;50.560;17.852;2023-05-07T01:48:02;99869.41;;;9.09;100.00
21728;BME280;11026;50.560;17.852;2023-05-07T01:50:32;99873.91;;;9.05;100.00
21728;BME280;11026;50.560;17.852;2023-05-07T01:53:01;99872.78;;;8.86;100.00
21728;BME280;11026;50.560;17.852;2023-05-07T01:55:30;99871.75;;;8.92;100.00
21728;BME280;11026;50.560;17.852;2023-05-07T01:57:58;99878.66;;;8.68;100.00
21728;BME280;11026;50.560;17.852;2023-05-07T02:00:25;99873.50;;;8.63;100.00
21728;BME280;11026;50.560;17.852;2023-05-07T02:02:52;99871.00;;;8.86;100.00
21728;BME280;11026;50.560;17.852;2023-05-07T02:05:20;99868.13;;;8.66;100.00
21728;BME280;11026;50.560;17.852;2023-05-07T02:07:47;99861.59;;;8.78;100.00
21728;BME280;11026;50.560;17.852;2023-05-07T02:10:16;99872.44;;;8.69;100.00
21728;BME280;11026;50.560;17.852;2023-05-07T02:12:45;99854.00;;;8.69;100.00
21728;BME280;11026;50.560;17.852;2023-05-07T02:15:14;99854.75;;;8.72;100.00
21728;BME280;11026;50.560;17.852;2023-05-07T02:18:02;99864.47;;;8.72;100.00
21728;BME280;11026;50.560;17.852;2023-05-07T02:20:30;99859.19;;;8.72;100.00
21728;BME280;11026;50.560;17.852;2023-05-07T02:22:57;99869.72;;;8.72;100.00
21728;BME280;11026;50.560;17.852;2023-05-07T02:25:25;99859.31;;;8.67;100.00
21728;BME280;11026;50.560;17.852;2023-05-07T02:27:52;99862.00;;;8.66;100.00
21728;BME280;11026;50.560;17.852;2023-05-07T02:30:20;99857.63;;;8.65;100.00
21728;BME280;11026;50.560;17.852;2023-05-07T02:32:48;99857.63;;;8.65;100.00
21728;BME280;11026;50.560;17.852;2023-05-07T02:35:16;99864.28;;;8.48;100.00
21728;BME280;11026;50.560;17.852;2023-05-07T02:37:43;99865.94;;;8.52;100.00
21728;BME280;11026;50.560;17.852;2023-05-07T02:40:12;99870.84;;;8.63;100.00
21728;BME280;11026;50.560;17.852;2023-05-07T02:42:41;99875.25;;;8.62;100.00
21728;BME280;11026;50.560;17.852;2023-05-07T02:45:11;99875.38;;;8.59;100.00
21728;BME280;11026;50.560;17.852;2023-05-07T02:47:38;99876.69;;;8.45;100.00
21728;BME280;11026;50.560;17.852;2023-05-07T02:50:06;99886.28;;;8.47;100.00
21728;BME280;11026;50.560;17.852;2023-05-07T02:52:34;99875.28;;;8.31;100.00
21728;BME280;11026;50.560;17.852;2023-05-07T02:55:02;99880.09;;;8.48;100.00
21728;BME280;11026;50.560;17.852;2023-05-07T02:57:29;99876.56;;;8.49;100.00
21728;BME280;11026;50.560;17.852;2023-05-07T02:59:58;99883.41;;;8.55;100.00
21728;BME280;11026;50.560;17.852;2023-05-07T03:02:26;99890.69;;;8.47;100.00
21728;BME280;11026;50.560;17.852;2023-05-07T03:04:53;99882.69;;;8.50;100.00
21728;BME280;11026;50.560;17.852;2023-05-07T03:07:21;99882.75;;;8.48;100.00
21728;BME280;11026;50.560;17.852;2023-05-07T03:09:49;99887.38;;;8.40;100.00
21728;BME280;11026;50.560;17.852;2023-05-07T03:12:17;99888.09;;;8.45;100.00
21728;BME280;11026;50.560;17.852;2023-05-07T03:14:44;99892.16;;;8.57;100.00
21728;BME280;11026;50.560;17.852;2023-05-07T03:17:11;99890.06;;;8.68;100.00
21728;BME280;11026;50.560;17.852;2023-05-07T03:19:39;99895.28;;;8.70;100.00
21728;BME280;11026;50.560;17.852;2023-05-07T03:22:07;99904.38;;;8.59;100.00
21728;BME280;11026;50.560;17.852;2023-05-07T03:24:35;99904.50;;;8.55;100.00
21728;BME280;11026;50.560;17.852;2023-05-07T03:27:03;99915.94;;;8.55;100.00
21728;BME280;11026;50.560;17.852;2023-05-07T03:29:39;99914.47;;;8.45;100.00
21728;BME280;11026;50.560;17.852;2023-05-07T03:32:07;99916.28;;;8.43;100.00
21728;BME280;11026;50.560;17.852;2023-05-07T03:34:35;99918.19;;;8.38;100.00
21728;BME280;11026;50.560;17.852;2023-05-07T03:37:08;99919.69;;;8.47;100.00
21728;BME280;11026;50.560;17.852;2023-05-07T03:39:36;99927.50;;;8.51;100.00
21728;BME280;11026;50.560;17.852;2023-05-07T03:42:04;99922.72;;;8.31;100.00
21728;BME280;11026;50.560;17.852;2023-05-07T03:44:31;99924.25;;;8.42;100.00
21728;BME280;11026;50.560;17.852;2023-05-07T03:46:59;99927.81;;;8.39;100.00
21728;BME280;11026;50.560;17.852;2023-05-07T03:49:26;99936.66;;;8.36;100.00
21728;BME280;11026;50.560;17.852;2023-05-07T03:51:53;99941.16;;;8.33;100.00
21728;BME280;11026;50.560;17.852;2023-05-07T03:54:21;99945.94;;;8.19;100.00
21728;BME280;11026;50.560;17.852;2023-05-07T03:56:48;99953.03;;;8.17;100.00
21728;BME280;11026;50.560;17.852;2023-05-07T03:59:18;99947.91;;;8.12;100.00
21728;BME280;11026;50.560;17.852;2023-05-07T04:01:45;99953.59;;;8.28;100.00
21728;BME280;11026;50.560;17.852;2023-05-07T04:04:14;99956.41;;;8.22;100.00
21728;BME280;11026;50.560;17.852;2023-05-07T04:06:44;99964.47;;;8.16;100.00
21728;BME280;11026;50.560;17.852;2023-05-07T04:09:12;99959.38;;;8.09;100.00
21728;BME280;11026;50.560;17.852;2023-05-07T04:11:40;99962.25;;;8.00;100.00
21728;BME280;11026;50.560;17.852;2023-05-07T04:14:08;99966.44;;;8.07;100.00
21728;BME280;11026;50.560;17.852;2023-05-07T04:16:35;99970.63;;;8.14;100.00
21728;BME280;11026;50.560;17.852;2023-05-07T04:19:08;99975.50;;;7.97;100.00
21728;BME280;11026;50.560;17.852;2023-05-07T04:21:36;99975.59;;;7.94;100.00
21728;BME280;11026;50.560;17.852;2023-05-07T04:24:05;99971.25;;;7.92;100.00
21728;BME280;11026;50.560;17.852;2023-05-07T04:26:38;99987.69;;;8.01;100.00
21728;BME280;11026;50.560;17.852;2023-05-07T04:29:06;99984.53;;;7.88;100.00
21728;BME280;11026;50.560;17.852;2023-05-07T04:31:34;99985.84;;;8.05;100.00
21728;BME280;11026;50.560;17.852;2023-05-07T04:34:02;99991.97;;;8.05;100.00
21728;BME280;11026;50.560;17.852;2023-05-07T04:36:30;99994.75;;;7.99;100.00
21728;BME280;11026;50.560;17.852;2023-05-07T04:38:59;99995.63;;;8.00;100.00
21728;BME280;11026;50.560;17.852;2023-05-07T04:41:27;99996.34;;;8.06;100.00
21728;BME280;11026;50.560;17.852;2023-05-07T04:43:55;99997.44;;;7.98;100.00
21728;BME280;11026;50.560;17.852;2023-05-07T04:46:22;100007.06;;;8.00;100.00
21728;BME280;11026;50.560;17.852;2023-05-07T04:48:57;100006.81;;;8.09;100.00
21728;BME280;11026;50.560;17.852;2023-05-07T04:51:25;100016.69;;;8.01;100.00
21728;BME280;11026;50.560;17.852;2023-05-07T04:53:52;100020.25;;;7.99;100.00
21728;BME280;11026;50.560;17.852;2023-05-07T04:56:20;100027.41;;;7.94;100.00
21728;BME280;11026;50.560;17.852;2023-05-07T04:58:48;100027.81;;;8.11;100.00
21728;BME280;11026;50.560;17.852;2023-05-07T05:01:16;100027.03;;;8.09;100.00
21728;BME280;11026;50.560;17.852;2023-05-07T05:03:45;100032.97;;;8.16;100.00
21728;BME280;11026;50.560;17.852;2023-05-07T05:06:13;100029.53;;;8.13;100.00
21728;BME280;11026;50.560;17.852;2023-05-07T05:08:40;100040.88;;;8.16;100.00
21728;BME280;11026;50.560;17.852;2023-05-07T05:11:08;100042.19;;;7.99;100.00
21728;BME280;11026;50.560;17.852;2023-05-07T05:13:36;100042.28;;;7.96;100.00
21728;BME280;11026;50.560;17.852;2023-05-07T05:16:04;100043.69;;;8.09;100.00
21728;BME280;11026;50.560;17.852;2023-05-07T05:18:32;100048.72;;;8.19;100.00
21728;BME280;11026;50.560;17.852;2023-05-07T05:21:00;100055.22;;;8.05;100.00
21728;BME280;11026;50.560;17.852;2023-05-07T05:23:27;100056.88;;;8.09;100.00
21728;BME280;11026;50.560;17.852;2023-05-07T05:25:58;100060.31;;;8.11;100.00
21728;BME280;11026;50.560;17.852;2023-05-07T05:28:25;100057.47;;;8.19;100.00
21728;BME280;11026;50.560;17.852;2023-05-07T05:30:55;100060.75;;;8.29;100.00
21728;BME280;11026;50.560;17.852;2023-05-07T05:33:22;100060.72;;;8.30;100.00
21728;BME280;11026;50.560;17.852;2023-05-07T05:35:51;100078.66;;;8.16;100.00
21728;BME280;11026;50.560;17.852;2023-05-07T05:38:18;100073.50;;;8.11;100.00
21728;BME280;11026;50.560;17.852;2023-05-07T05:40:47;100078.75;;;8.11;100.00
21728;BME280;11026;50.560;17.852;2023-05-07T05:43:15;100082.13;;;8.18;100.00
21728;BME280;11026;50.560;17.852;2023-05-07T05:45:45;100086.28;;;7.93;100.00
21728;BME280;11026;50.560;17.852;2023-05-07T05:48:12;100083.59;;;7.94;100.00
21728;BME280;11026;50.560;17.852;2023-05-07T05:50:39;100088.19;;;7.86;100.00
21728;BME280;11026;50.560;17.852;2023-05-07T05:53:08;100084.56;;;7.90;100.00
21728;BME280;11026;50.560;17.852;2023-05-07T05:55:35;100093.16;;;7.98;100.00
21728;BME280;11026;50.560;17.852;2023-05-07T05:58:03;100081.31;;;8.16;100.00
21728;BME280;11026;50.560;17.852;2023-05-07T06:00:30;100083.63;;;8.27;100.00
21728;BME280;11026;50.560;17.852;2023-05-07T06:02:58;100086.09;;;8.34;100.00
21728;BME280;11026;50.560;17.852;2023-05-07T06:05:27;100093.19;;;8.32;100.00
21728;BME280;11026;50.560;17.852;2023-05-07T06:07:56;100093.09;;;8.37;100.00
21728;BME280;11026;50.560;17.852;2023-05-07T06:10:23;100098.44;;;8.32;100.00
21728;BME280;11026;50.560;17.852;2023-05-07T06:12:53;100090.19;;;8.46;100.00
21728;BME280;11026;50.560;17.852;2023-05-07T06:15:20;100091.25;;;8.39;100.00
21728;BME280;11026;50.560;17.852;2023-05-07T06:17:48;100097.00;;;8.55;100.00
21728;BME280;11026;50.560;17.852;2023-05-07T06:20:17;100092.84;;;8.46;100.00
21728;BME280;11026;50.560;17.852;2023-05-07T06:22:44;100100.59;;;8.52;100.00
21728;BME280;11026;50.560;17.852;2023-05-07T06:25:12;100097.97;;;8.51;100.00
21728;BME280;11026;50.560;17.852;2023-05-07T06:27:39;100096.78;;;8.62;100.00
21728;BME280;11026;50.560;17.852;2023-05-07T06:30:08;100104.28;;;8.79;100.00
21728;BME280;11026;50.560;17.852;2023-05-07T06:32:42;100103.09;;;8.90;100.00
21728;BME280;11026;50.560;17.852;2023-05-07T06:35:10;100113.91;;;8.80;100.00
21728;BME280;11026;50.560;17.852;2023-05-07T06:37:41;100114.63;;;8.87;100.00
21728;BME280;11026;50.560;17.852;2023-05-07T06:40:09;100126.06;;;8.86;100.00
21728;BME280;11026;50.560;17.852;2023-05-07T06:42:38;100120.00;;;8.82;100.00
21728;BME280;11026;50.560;17.852;2023-05-07T06:45:07;100120.19;;;8.75;100.00
21728;BME280;11026;50.560;17.852;2023-05-07T06:47:35;100126.16;;;8.83;100.00
21728;BME280;11026;50.560;17.852;2023-05-07T06:50:03;100126.88;;;8.88;99.81
21728;BME280;11026;50.560;17.852;2023-05-07T06:52:30;100130.44;;;8.87;99.59
21728;BME280;11026;50.560;17.852;2023-05-07T06:54:57;100137.44;;;8.88;99.20
21728;BME280;11026;50.560;17.852;2023-05-07T06:57:25;100136.59;;;8.86;99.09
21728;BME280;11026;50.560;17.852;2023-05-07T06:59:52;100134.88;;;8.85;99.86
21728;BME280;11026;50.560;17.852;2023-05-07T07:02:20;100144.44;;;8.89;99.74
21728;BME280;11026;50.560;17.852;2023-05-07T07:04:47;100150.44;;;8.61;100.00
21728;BME280;11026;50.560;17.852;2023-05-07T07:07:15;100158.28;;;8.65;100.00
21728;BME280;11026;50.560;17.852;2023-05-07T07:09:43;100157.66;;;8.55;100.00
21728;BME280;11026;50.560;17.852;2023-05-07T07:12:10;100164.34;;;8.68;100.00
21728;BME280;11026;50.560;17.852;2023-05-07T07:14:47;100165.00;;;8.44;100.00
21728;BME280;11026;50.560;17.852;2023-05-07T07:17:14;100164.59;;;8.22;100.00
21728;BME280;11026;50.560;17.852;2023-05-07T07:19:43;100159.72;;;8.42;100.00
21728;BME280;11026;50.560;17.852;2023-05-07T07:22:10;100161.84;;;8.28;100.00
21728;BME280;11026;50.560;17.852;2023-05-07T07:24:38;100165.69;;;8.50;100.00
21728;BME280;11026;50.560;17.852;2023-05-07T07:27:05;100170.06;;;8.51;100.00
21728;BME280;11026;50.560;17.852;2023-05-07T07:29:33;100171.78;;;8.52;100.00
21728;BME280;11026;50.560;17.852;2023-05-07T07:32:00;100167.69;;;8.41;100.00
21728;BME280;11026;50.560;17.852;2023-05-07T07:34:27;100168.25;;;8.53;100.00
21728;BME280;11026;50.560;17.852;2023-05-07T07:36:55;100166.59;;;8.49;100.00
21728;BME280;11026;50.560;17.852;2023-05-07T07:39:23;100174.75;;;8.40;99.60
21728;BME280;11026;50.560;17.852;2023-05-07T07:41:50;100176.28;;;8.47;100.00
21728;BME280;11026;50.560;17.852;2023-05-07T07:44:18;100180.72;;;8.47;99.32
21728;BME280;11026;50.560;17.852;2023-05-07T07:46:45;100186.91;;;8.46;98.77
21728;BME280;11026;50.560;17.852;2023-05-07T07:49:14;100185.13;;;8.46;98.52
21728;BME280;11026;50.560;17.852;2023-05-07T07:51:42;100193.56;;;8.60;99.27
21728;BME280;11026;50.560;17.852;2023-05-07T07:54:09;100197.69;;;8.71;98.11
21728;BME280;11026;50.560;17.852;2023-05-07T07:56:38;100196.13;;;8.64;98.33
21728;BME280;11026;50.560;17.852;2023-05-07T07:59:05;100204.78;;;8.69;98.75
21728;BME280;11026;50.560;17.852;2023-05-07T08:01:35;100209.81;;;8.78;98.09
21728;BME280;11026;50.560;17.852;2023-05-07T08:04:09;100212.56;;;8.73;97.33
21728;BME280;11026;50.560;17.852;2023-05-07T08:06:43;100211.66;;;8.74;97.29
21728;BME280;11026;50.560;17.852;2023-05-07T08:09:11;100211.44;;;8.83;97.40
21728;BME280;11026;50.560;17.852;2023-05-07T08:11:39;100212.97;;;8.92;96.46
21728;BME280;11026;50.560;17.852;2023-05-07T08:14:07;100209.13;;;9.04;95.46
21728;BME280;11026;50.560;17.852;2023-05-07T08:16:34;100209.75;;;9.14;92.90
21728;BME280;11026;50.560;17.852;2023-05-07T08:19:02;100223.94;;;9.09;91.76
21728;BME280;11026;50.560;17.852;2023-05-07T08:21:29;100222.22;;;9.08;91.66
21728;BME280;11026;50.560;17.852;2023-05-07T08:24:00;100218.50;;;9.16;90.67
21728;BME280;11026;50.560;17.852;2023-05-07T08:26:34;100219.19;;;9.22;90.48
21728;BME280;11026;50.560;17.852;2023-05-07T08:29:02;100220.88;;;9.25;89.18
21728;BME280;11026;50.560;17.852;2023-05-07T08:31:30;100220.16;;;9.20;88.26
21728;BME280;11026;50.560;17.852;2023-05-07T08:33:59;100224.31;;;9.28;87.85
21728;BME280;11026;50.560;17.852;2023-05-07T08:36:27;100223.69;;;9.19;88.16
21728;BME280;11026;50.560;17.852;2023-05-07T08:38:55;100228.97;;;9.19;89.35
21728;BME280;11026;50.560;17.852;2023-05-07T08:41:23;100233.28;;;9.23;89.22
21728;BME280;11026;50.560;17.852;2023-05-07T08:43:58;100230.63;;;9.23;88.96
21728;BME280;11026;50.560;17.852;2023-05-07T08:46:31;100239.19;;;9.31;88.86
21728;BME280;11026;50.560;17.852;2023-05-07T08:49:01;100235.31;;;9.44;87.57
21728;BME280;11026;50.560;17.852;2023-05-07T08:51:31;100242.94;;;9.55;88.14
21728;BME280;11026;50.560;17.852;2023-05-07T08:53:59;100241.28;;;9.82;89.55
21728;BME280;11026;50.560;17.852;2023-05-07T08:56:28;100247.38;;;10.14;88.01
21728;BME280;11026;50.560;17.852;2023-05-07T08:58:55;100242.75;;;10.48;85.74
21728;BME280;11026;50.560;17.852;2023-05-07T09:01:26;100240.22;;;10.72;84.55
21728;BME280;11026;50.560;17.852;2023-05-07T09:03:54;100240.72;;;10.83;83.87
21728;BME280;11026;50.560;17.852;2023-05-07T09:06:22;100249.56;;;10.55;82.71
21728;BME280;11026;50.560;17.852;2023-05-07T09:08:54;100245.22;;;10.54;82.53
21728;BME280;11026;50.560;17.852;2023-05-07T09:11:23;100244.41;;;10.79;81.83
21728;BME280;11026;50.560;17.852;2023-05-07T09:13:55;100250.78;;;10.98;81.85
21728;BME280;11026;50.560;17.852;2023-05-07T09:16:23;100250.38;;;11.11;80.92
21728;BME280;11026;50.560;17.852;2023-05-07T09:18:54;100251.31;;;11.10;80.00
21728;BME280;11026;50.560;17.852;2023-05-07T09:21:22;100245.06;;;11.11;78.48
21728;BME280;11026;50.560;17.852;2023-05-07T09:23:55;100248.16;;;11.23;79.00
21728;BME280;11026;50.560;17.852;2023-05-07T09:26:24;100252.38;;;11.29;77.61
21728;BME280;11026;50.560;17.852;2023-05-07T09:28:51;100249.16;;;11.21;77.83
21728;BME280;11026;50.560;17.852;2023-05-07T09:31:20;100248.16;;;10.98;76.83
21728;BME280;11026;50.560;17.852;2023-05-07T09:33:48;100249.69;;;11.05;77.74
21728;BME280;11026;50.560;17.852;2023-05-07T09:36:17;100253.06;;;11.34;77.22
21728;BME280;11026;50.560;17.852;2023-05-07T09:38:45;100263.22;;;11.46;75.98
21728;BME280;11026;50.560;17.852;2023-05-07T09:41:13;100266.41;;;11.56;75.70
21728;BME280;11026;50.560;17.852;2023-05-07T09:43:40;100258.59;;;11.53;74.06
21728;BME280;11026;50.560;17.852;2023-05-07T09:46:15;100263.59;;;11.61;74.20
21728;BME280;11026;50.560;17.852;2023-05-07T09:48:44;100269.13;;;11.78;74.69
21728;BME280;11026;50.560;17.852;2023-05-07T09:52:04;100264.09;;;11.95;73.15
21728;BME280;11026;50.560;17.852;2023-05-07T09:54:07;100267.31;;;11.80;72.17
21728;BME280;11026;50.560;17.852;2023-05-07T09:56:35;100265.75;;;11.74;71.20
21728;BME280;11026;50.560;17.852;2023-05-07T09:59:05;100276.44;;;11.71;70.95
21728;BME280;11026;50.560;17.852;2023-05-07T10:01:36;100267.22;;;11.58;70.92
21728;BME280;11026;50.560;17.852;2023-05-07T10:04:05;100268.09;;;11.58;72.05
21728;BME280;11026;50.560;17.852;2023-05-07T10:06:34;100277.25;;;11.50;72.47
21728;BME280;11026;50.560;17.852;2023-05-07T10:09:04;100275.72;;;11.18;73.52
21728;BME280;11026;50.560;17.852;2023-05-07T10:11:34;100287.41;;;11.37;72.94
21728;BME280;11026;50.560;17.852;2023-05-07T10:14:03;100288.09;;;11.42;73.43
21728;BME280;11026;50.560;17.852;2023-05-07T10:16:33;100293.91;;;11.28;73.03
21728;BME280;11026;50.560;17.852;2023-05-07T10:19:08;100292.81;;;11.34;73.49
21728;BME280;11026;50.560;17.852;2023-05-07T10:21:44;100300.75;;;11.34;73.48
21728;BME280;11026;50.560;17.852;2023-05-07T10:24:20;100298.53;;;11.22;74.69
21728;BME280;11026;50.560;17.852;2023-05-07T10:26:51;100310.47;;;10.82;76.00
21728;BME280;11026;50.560;17.852;2023-05-07T10:34:43;100311.88;;;11.19;80.79
21728;BME280;11026;50.560;17.852;2023-05-07T10:37:13;100305.22;;;11.32;75.43
21728;BME280;11026;50.560;17.852;2023-05-07T10:39:42;100308.44;;;11.42;74.01
21728;BME280;11026;50.560;17.852;2023-05-07T10:42:11;100306.47;;;11.47;73.62
21728;BME280;11026;50.560;17.852;2023-05-07T10:44:39;100300.91;;;11.54;73.33
21728;BME280;11026;50.560;17.852;2023-05-07T10:47:10;100299.28;;;11.50;72.27
21728;BME280;11026;50.560;17.852;2023-05-07T10:52:24;100294.84;;;10.74;75.05
21728;BME280;11026;50.560;17.852;2023-05-07T10:57:49;100301.06;;;10.73;78.16
21728;BME280;11026;50.560;17.852;2023-05-07T11:05:32;100305.06;;;11.12;73.71
21728;BME280;11026;50.560;17.852;2023-05-07T11:08:05;100305.19;;;11.33;73.55
21728;BME280;11026;50.560;17.852;2023-05-07T11:10:56;100302.03;;;11.47;72.04
21728;BME280;11026;50.560;17.852;2023-05-07T11:13:46;100314.44;;;11.47;71.29
21728;BME280;11026;50.560;17.852;2023-05-07T11:16:21;100307.78;;;11.35;72.34
21728;BME280;11026;50.560;17.852;2023-05-07T11:18:53;100314.41;;;10.69;74.34
21728;BME280;11026;50.560;17.852;2023-05-07T11:21:40;100315.47;;;10.63;76.05
21728;BME280;11026;50.560;17.852;2023-05-07T11:24:09;100323.34;;;10.65;75.87
21728;BME280;11026;50.560;17.852;2023-05-07T11:26:48;100323.34;;;10.65;76.11
21728;BME280;11026;50.560;17.852;2023-05-07T11:29:21;100329.78;;;10.57;76.12
21728;BME280;11026;50.560;17.852;2023-05-07T11:31:54;100326.38;;;10.52;75.21
21728;BME280;11026;50.560;17.852;2023-05-07T11:34:26;100330.09;;;10.47;75.03
21728;BME280;11026;50.560;17.852;2023-05-07T11:36:55;100345.28;;;10.40;75.27
21728;BME280;11026;50.560;17.852;2023-05-07T11:39:31;100340.19;;;10.34;75.72
21728;BME280;11026;50.560;17.852;2023-05-07T11:42:00;100341.47;;;10.19;77.10
21728;BME280;11026;50.560;17.852;2023-05-07T11:44:44;100331.44;;;10.32;77.44
21728;BME280;11026;50.560;17.852;2023-05-07T11:47:17;100339.81;;;10.46;77.42
21728;BME280;11026;50.560;17.852;2023-05-07T11:49:50;100349.19;;;10.56;77.27
21728;BME280;11026;50.560;17.852;2023-05-07T11:52:19;100343.09;;;10.54;76.35
21728;BME280;11026;50.560;17.852;2023-05-07T11:54:51;100342.63;;;10.42;76.80
21728;BME280;11026;50.560;17.852;2023-05-07T11:57:19;100361.50;;;9.97;78.66
21728;BME280;11026;50.560;17.852;2023-05-07T11:59:58;100357.16;;;10.27;78.32
21728;BME280;11026;50.560;17.852;2023-05-07T12:02:31;100347.00;;;10.41;77.10
21728;BME280;11026;50.560;17.852;2023-05-07T12:05:12;100356.63;;;10.45;75.93
21728;BME280;11026;50.560;17.852;2023-05-07T12:07:41;100352.78;;;10.24;76.54
21728;BME280;11026;50.560;17.852;2023-05-07T12:10:13;100359.47;;;10.06;77.64
21728;BME280;11026;50.560;17.852;2023-05-07T12:12:59;100359.38;;;10.09;79.15
21728;BME280;11026;50.560;17.852;2023-05-07T12:15:43;100370.63;;;10.18;79.54
21728;BME280;11026;50.560;17.852;2023-05-07T12:18:19;100364.88;;;10.33;77.87
21728;BME280;11026;50.560;17.852;2023-05-07T12:20:48;100367.84;;;10.22;76.68
21728;BME280;11026;50.560;17.852;2023-05-07T12:23:25;100364.00;;;10.34;77.02
21728;BME280;11026;50.560;17.852;2023-05-07T12:25:57;100360.91;;;10.49;77.10
21728;BME280;11026;50.560;17.852;2023-05-07T12:28:30;100365.69;;;10.65;77.21
21728;BME280;11026;50.560;17.852;2023-05-07T12:31:01;100367.91;;;10.78;76.27
21728;BME280;11026;50.560;17.852;2023-05-07T12:33:31;100365.13;;;10.83;73.68
21728;BME280;11026;50.560;17.852;2023-05-07T12:36:06;100366.84;;;10.84;73.85
21728;BME280;11026;50.560;17.852;2023-05-07T12:38:38;100365.81;;;10.90;73.94
21728;BME280;11026;50.560;17.852;2023-05-07T12:41:22;100372.81;;;10.91;73.13
21728;BME280;11026;50.560;17.852;2023-05-07T12:44:04;100376.16;;;10.97;71.88
21728;BME280;11026;50.560;17.852;2023-05-07T12:46:38;100368.66;;;11.10;71.52
21728;BME280;11026;50.560;17.852;2023-05-07T12:49:08;100367.50;;;11.19;71.81
21728;BME280;11026;50.560;17.852;2023-05-07T12:51:38;100369.88;;;11.26;71.80
21728;BME280;11026;50.560;17.852;2023-05-07T12:54:31;100370.22;;;11.42;71.51
21728;BME280;11026;50.560;17.852;2023-05-07T12:57:07;100373.38;;;11.00;72.59
21728;BME280;11026;50.560;17.852;2023-05-07T12:59:42;100375.00;;;11.04;73.56
21728;BME280;11026;50.560;17.852;2023-05-07T13:02:11;100379.28;;;11.08;72.14
21728;BME280;11026;50.560;17.852;2023-05-07T13:04:46;100373.59;;;10.94;72.21
21728;BME280;11026;50.560;17.852;2023-05-07T13:07:34;100381.09;;;10.80;72.70
21728;BME280;11026;50.560;17.852;2023-05-07T13:10:11;100381.31;;;10.74;72.36
21728;BME280;11026;50.560;17.852;2023-05-07T13:12:41;100385.84;;;10.69;72.47
21728;BME280;11026;50.560;17.852;2023-05-07T13:15:17;100391.44;;;10.59;73.13